Adventure of The Seas — C6SA3 — position and weather

sailwx.info

Track history (hours):
 
Tides and Currents Weather Stations Pressure Air Temp Water Temp Dewpoint Dewpoint Depression Visibility Wind Speed Wind Dir Waves Ship Positions

Adventure of The Seas

Operator: Royal Caribbean Cruises Ltd

Last reported at 2019-Mar-24 03:00 UTC. Time now 2019-Mar-26 00:14 UTC.
Position N 24°48' W 079°30'.

Type: Passenger vessel. MMSI: 311263000.

Wind from 090 at 27 knots

Barometer 1022.5 mb
Air temperature 23.0 ° C
Visibility: greater than 10.8 NM
Dewpoint 18.9 ° C

Date/timePositionNaut miles runAvg speedWind from/ knotsBaromVisibWave heightAir tempDewpointWater temp
2019-Mar-24 03:00N 24°48' W 079°30'3618.0 090 / 271022.510.8 23.018.9
2019-Mar-24 01:00N 25°24' W 079°30'895.6 090 / 261022.410.8 23.020.2
2019-Mar-24 00:55N 25°30' W 079°35'716.6
2019-Mar-24 00:30N 25°37' W 079°36'917.1
2019-Mar-24 00:00N 25°43' W 079°42'816.5
2019-Mar-23 23:30N 25°50' W 079°48'816.1
2019-Mar-23 23:00N 25°56' W 079°55'816.3
2019-Mar-23 22:31N 26°02' W 080°00'612.4
2019-Mar-23 22:01N 26°06' W 080°06'1 2.3
2019-Mar-23 21:29N 26°05' W 080°07'0 0.0
2019-Mar-23 20:59N 26°05' W 080°07'0 0.0
2019-Mar-23 20:29N 26°05' W 080°07'0 0.0
2019-Mar-23 19:59N 26°05' W 080°07'0 0.0
2019-Mar-23 19:29N 26°05' W 080°07'0 0.0
2019-Mar-23 18:59N 26°05' W 080°07'0 0.0
2019-Mar-23 18:29N 26°05' W 080°07'0 0.0
2019-Mar-23 17:59N 26°05' W 080°07'0 0.0
2019-Mar-23 17:29N 26°05' W 080°07'0 0.0
2019-Mar-23 16:59N 26°05' W 080°07'0 0.0
2019-Mar-23 16:29N 26°05' W 080°07'0 0.0
2019-Mar-23 15:59N 26°05' W 080°07'0 0.0
2019-Mar-23 15:29N 26°05' W 080°07'0 0.0
2019-Mar-23 14:59N 26°05' W 080°07'0 0.0
2019-Mar-23 14:29N 26°05' W 080°07'0 0.0
2019-Mar-23 13:59N 26°05' W 080°07'0 0.0
2019-Mar-23 13:29N 26°05' W 080°07'0 0.0
2019-Mar-23 12:59N 26°05' W 080°07'0 0.0
2019-Mar-23 12:29N 26°05' W 080°07'0 0.0
2019-Mar-23 11:59N 26°05' W 080°07'0 0.0
2019-Mar-23 11:29N 26°05' W 080°07'0 0.0
2019-Mar-23 10:59N 26°05' W 080°07'0 0.0
2019-Mar-23 10:29N 26°05' W 080°07'0 0.0
2019-Mar-23 10:00N 26°05' W 080°07'1 1.4
2019-Mar-23 09:30N 26°06' W 080°07'4 8.2
2019-Mar-23 09:00N 26°06' W 080°02'815.6
2019-Mar-23 08:30N 26°08' W 079°54'816.4
2019-Mar-23 08:00N 26°10' W 079°45'815.8
2019-Mar-23 07:30N 26°13' W 079°37'816.1
2019-Mar-23 07:00N 26°15' W 079°28'13218.9
2019-Mar-23 00:00N 25°42' W 077°06'1616.2 330 / 81017.710.8 25.923.4
2019-Mar-22 23:00N 25°42' W 076°48'27917.4 330 / 131017.510.8 26.523.5
2019-Mar-22 07:00N 23°30' W 072°18'11619.4 180 / 51013.3 26.0
2019-Mar-22 01:00N 22°30' W 070°30'30619.1 180 / 111014.810.8 25.422.2
2019-Mar-21 09:00N 19°54' W 065°48'6220.8 120 / 171014.510.8 25.923.1
2019-Mar-21 06:00N 19°18' W 064°54'6616.5 120 / 131015.910.8 24.822.6
2019-Mar-21 02:00N 18°36' W 064°00'3619.3 090 / 171020.310.8 26.022.6
2019-Mar-21 00:08N 18°14' W 063°30'319.4
2019-Mar-20 23:58N 18°13' W 063°27'1019.7
2019-Mar-20 23:29N 18°07' W 063°19'1019.4
2019-Mar-20 22:59N 18°02' W 063°11'714.7
2019-Mar-20 22:30N 18°01' W 063°03'0 0.4
2019-Mar-20 21:30N 18°01' W 063°03'0 0.0
2019-Mar-20 21:01N 18°01' W 063°03'0 0.0
2019-Mar-20 20:30N 18°01' W 063°03'0 0.0
2019-Mar-20 19:57N 18°01' W 063°03'0 0.0
2019-Mar-20 19:30N 18°01' W 063°03'0 0.0
2019-Mar-20 19:00N 18°01' W 063°03'0 0.0
2019-Mar-20 18:30N 18°01' W 063°03'0 0.0
2019-Mar-20 18:00N 18°01' W 063°03'0 0.0
2019-Mar-20 17:30N 18°01' W 063°03'0 0.0
2019-Mar-20 16:48N 18°01' W 063°03'0 0.0
2019-Mar-20 16:18N 18°01' W 063°03'0 0.0
2019-Mar-20 15:51N 18°01' W 063°03'0 0.0
2019-Mar-20 15:18N 18°01' W 063°03'0 0.0
2019-Mar-20 14:54N 18°01' W 063°03'0 0.0
2019-Mar-20 14:18N 18°01' W 063°03'0 0.0
2019-Mar-20 13:54N 18°01' W 063°03'0 0.0
2019-Mar-20 13:24N 18°01' W 063°03'0 0.0
2019-Mar-20 12:54N 18°01' W 063°03'0 0.0
2019-Mar-20 12:24N 18°01' W 063°03'0 0.0
2019-Mar-20 11:42N 18°01' W 063°03'0 0.0
2019-Mar-20 11:27N 18°01' W 063°03'2 2.9
2019-Mar-20 10:54N 18°00' W 063°04'717.6
2019-Mar-20 10:30N 18°01' W 063°12'1120.5
2019-Mar-20 09:58N 18°02' W 063°23'1220.6
2019-Mar-20 09:24N 18°04' W 063°36'7219.6
2019-Mar-20 05:43N 18°12' W 064°51'7415.7
2019-Mar-20 01:01N 18°27' W 066°07'0 2.4
2019-Mar-20 00:58N 18°28' W 066°07'0 0.5
2019-Mar-20 00:28N 18°28' W 066°07'0 0.0
2019-Mar-19 23:58N 18°28' W 066°07'0 0.0
2019-Mar-19 23:25N 18°28' W 066°07'0 0.0
2019-Mar-19 22:58N 18°28' W 066°07'0 0.0
2019-Mar-19 22:25N 18°28' W 066°07'0 0.0
2019-Mar-19 21:49N 18°28' W 066°07'0 0.0
2019-Mar-19 21:22N 18°28' W 066°07'0 0.0
2019-Mar-19 20:55N 18°28' W 066°07'49611.3
2019-Mar-18 01:00N 20°54' W 074°30'24317.3 110 / 151015.8 26.0
2019-Mar-17 11:00N 22°42' W 078°24'15617.3 090 / 161016.610.8 23.521.4
2019-Mar-17 02:00N 25°06' W 079°30'2428.7 090 / 91019.5
2019-Mar-17 01:10N 25°29' W 079°37'316.9
2019-Mar-17 01:00N 25°32' W 079°37'815.8
2019-Mar-17 00:30N 25°39' W 079°38'714.3
2019-Mar-17 00:00N 25°46' W 079°39'714.7
2019-Mar-16 23:30N 25°53' W 079°42'816.7
2019-Mar-16 23:00N 25°58' W 079°49'816.4
2019-Mar-16 22:30N 26°02' W 079°57'815.4
2019-Mar-16 22:01N 26°06' W 080°05'2 3.7
2019-Mar-16 21:31N 26°05' W 080°07'0 0.1
2019-Mar-16 20:59N 26°05' W 080°07'0 0.0
2019-Mar-16 20:29N 26°05' W 080°07'0 0.0
2019-Mar-16 19:59N 26°05' W 080°07'0 0.0
2019-Mar-16 19:29N 26°05' W 080°07'0 0.0
2019-Mar-16 18:59N 26°05' W 080°07'0 0.0
2019-Mar-16 18:29N 26°05' W 080°07'0 0.0
2019-Mar-16 17:59N 26°05' W 080°07'0 0.0
2019-Mar-16 17:29N 26°05' W 080°07'0 0.0
2019-Mar-16 16:59N 26°05' W 080°07'0 0.0
2019-Mar-16 16:29N 26°05' W 080°07'0 0.0
2019-Mar-16 15:59N 26°05' W 080°07'0 0.0
2019-Mar-16 15:29N 26°05' W 080°07'0 0.0
2019-Mar-16 14:59N 26°05' W 080°07'0 0.0
2019-Mar-16 14:29N 26°05' W 080°07'0 0.0
2019-Mar-16 13:59N 26°05' W 080°07'0 0.0
2019-Mar-16 13:29N 26°05' W 080°07'0 0.0
2019-Mar-16 12:59N 26°05' W 080°07'0 0.0
2019-Mar-16 12:29N 26°05' W 080°07'0 0.0
2019-Mar-16 11:59N 26°05' W 080°07'0 0.0
2019-Mar-16 11:29N 26°05' W 080°07'0 0.0
2019-Mar-16 10:59N 26°05' W 080°07'0 0.0
2019-Mar-16 10:29N 26°05' W 080°07'0 0.0
2019-Mar-16 09:59N 26°05' W 080°07'0 0.0
2019-Mar-16 09:29N 26°05' W 080°07'1 1.4
2019-Mar-16 09:01N 26°06' W 080°07'5 9.1
2019-Mar-16 08:31N 26°06' W 080°02'714.3
2019-Mar-16 08:00N 26°06' W 079°54'714.4
2019-Mar-16 07:30N 25°59' W 079°51'917.1
2019-Mar-16 07:00N 25°51' W 079°52'917.5
2019-Mar-16 06:30N 25°42' W 079°52'1017.8
2019-Mar-16 05:58N 25°32' W 079°53'818.1
2019-Mar-16 05:30N 25°25' W 079°56'1325.6
2019-Mar-16 05:00N 25°12' W 080°00'27415.2 120 / 151019.810.8 24.820.9
2019-Mar-15 11:00N 23°12' W 084°30'2814.2 150 / 121016.510.8 25.121.9
2019-Mar-15 09:00N 22°54' W 084°54'2914.3 120 / 121015.710.8 25.123.0
2019-Mar-15 07:00N 22°36' W 085°18'3718.3 120 / 201015.810.8 25.221.8
2019-Mar-15 05:00N 22°12' W 085°48'3417.2 120 / 221016.810.8 25.323.2
2019-Mar-15 03:00N 21°42' W 086°06'7319.6 120 / 231016.6 5.4
2019-Mar-14 23:16N 20°43' W 086°52'519.0
2019-Mar-14 23:00N 20°39' W 086°55'816.5
2019-Mar-14 22:30N 20°32' W 086°60'3 5.0
2019-Mar-14 21:54N 20°29' W 086°59'0 0.0
2019-Mar-14 21:30N 20°29' W 086°59'0 0.0
2019-Mar-14 21:00N 20°29' W 086°59'0 0.0
2019-Mar-14 20:30N 20°29' W 086°59'0 0.0
2019-Mar-14 20:00N 20°29' W 086°59'0 0.0
2019-Mar-14 19:30N 20°29' W 086°59'0 0.0
2019-Mar-14 19:00N 20°29' W 086°59'0 0.0
2019-Mar-14 18:30N 20°29' W 086°59'0 0.0
2019-Mar-14 18:00N 20°29' W 086°59'0 0.0
2019-Mar-14 17:30N 20°29' W 086°59'0 0.0
2019-Mar-14 16:54N 20°29' W 086°59'0 0.0
2019-Mar-14 16:30N 20°29' W 086°59'0 0.0
2019-Mar-14 16:00N 20°29' W 086°59'0 0.0
2019-Mar-14 15:30N 20°29' W 086°59'0 0.0
2019-Mar-14 15:00N 20°29' W 086°59'0 0.0
2019-Mar-14 14:30N 20°29' W 086°59'0 0.0
2019-Mar-14 14:00N 20°29' W 086°59'0 0.0
2019-Mar-14 13:30N 20°29' W 086°59'0 0.0
2019-Mar-14 13:00N 20°29' W 086°59'0 0.0
2019-Mar-14 12:27N 20°29' W 086°59'0 0.8
2019-Mar-14 12:00N 20°29' W 086°59'4 7.3
2019-Mar-14 11:30N 20°28' W 087°03'611.2
2019-Mar-14 10:57N 20°22' W 087°05'2211.2
2019-Mar-14 09:00N 20°00' W 087°06'   140 / 191013.210.8 24.921.8
Track history (hours):
 
Tides and Currents Weather Stations Pressure Air Temp Water Temp Dewpoint Dewpoint Depression Visibility Wind Speed Wind Dir Waves Ship Positions

Adventure of The Seas

Operator: Royal Caribbean Cruises Ltd

Last reported at 2019-Mar-24 03:00 UTC. Time now 2019-Mar-26 00:14 UTC.
Position N 24°48' W 079°30'.

Type: Passenger vessel. MMSI: 311263000.

Wind from 090 at 27 knots

Barometer 1022.5 mb
Air temperature 23.0 ° C
Visibility: greater than 10.8 NM
Dewpoint 18.9 ° C

Date/timePositionNaut miles runAvg speedWind from/ knotsBaromVisibWave heightAir tempDewpointWater temp
2019-Mar-24 03:00N 24°48' W 079°30'3618.0 090 / 271022.510.8 23.018.9
2019-Mar-24 01:00N 25°24' W 079°30'895.6 090 / 261022.410.8 23.020.2
2019-Mar-24 00:55N 25°30' W 079°35'716.6
2019-Mar-24 00:30N 25°37' W 079°36'917.1
2019-Mar-24 00:00N 25°43' W 079°42'816.5
2019-Mar-23 23:30N 25°50' W 079°48'816.1
2019-Mar-23 23:00N 25°56' W 079°55'816.3
2019-Mar-23 22:31N 26°02' W 080°00'612.4
2019-Mar-23 22:01N 26°06' W 080°06'1 2.3
2019-Mar-23 21:29N 26°05' W 080°07'0 0.0
2019-Mar-23 20:59N 26°05' W 080°07'0 0.0
2019-Mar-23 20:29N 26°05' W 080°07'0 0.0
2019-Mar-23 19:59N 26°05' W 080°07'0 0.0
2019-Mar-23 19:29N 26°05' W 080°07'0 0.0
2019-Mar-23 18:59N 26°05' W 080°07'0 0.0
2019-Mar-23 18:29N 26°05' W 080°07'0 0.0
2019-Mar-23 17:59N 26°05' W 080°07'0 0.0
2019-Mar-23 17:29N 26°05' W 080°07'0 0.0
2019-Mar-23 16:59N 26°05' W 080°07'0 0.0
2019-Mar-23 16:29N 26°05' W 080°07'0 0.0
2019-Mar-23 15:59N 26°05' W 080°07'0 0.0
2019-Mar-23 15:29N 26°05' W 080°07'0 0.0
2019-Mar-23 14:59N 26°05' W 080°07'0 0.0
2019-Mar-23 14:29N 26°05' W 080°07'0 0.0
2019-Mar-23 13:59N 26°05' W 080°07'0 0.0
2019-Mar-23 13:29N 26°05' W 080°07'0 0.0
2019-Mar-23 12:59N 26°05' W 080°07'0 0.0
2019-Mar-23 12:29N 26°05' W 080°07'0 0.0
2019-Mar-23 11:59N 26°05' W 080°07'0 0.0
2019-Mar-23 11:29N 26°05' W 080°07'0 0.0
2019-Mar-23 10:59N 26°05' W 080°07'0 0.0
2019-Mar-23 10:29N 26°05' W 080°07'0 0.0
2019-Mar-23 10:00N 26°05' W 080°07'1 1.4
2019-Mar-23 09:30N 26°06' W 080°07'4 8.2
2019-Mar-23 09:00N 26°06' W 080°02'815.6
2019-Mar-23 08:30N 26°08' W 079°54'816.4
2019-Mar-23 08:00N 26°10' W 079°45'815.8
2019-Mar-23 07:30N 26°13' W 079°37'816.1
2019-Mar-23 07:00N 26°15' W 079°28'13218.9
2019-Mar-23 00:00N 25°42' W 077°06'1616.2 330 / 81017.710.8 25.923.4
2019-Mar-22 23:00N 25°42' W 076°48'27917.4 330 / 131017.510.8 26.523.5
2019-Mar-22 07:00N 23°30' W 072°18'11619.4 180 / 51013.3 26.0
2019-Mar-22 01:00N 22°30' W 070°30'30619.1 180 / 111014.810.8 25.422.2
2019-Mar-21 09:00N 19°54' W 065°48'6220.8 120 / 171014.510.8 25.923.1
2019-Mar-21 06:00N 19°18' W 064°54'6616.5 120 / 131015.910.8 24.822.6
2019-Mar-21 02:00N 18°36' W 064°00'3619.3 090 / 171020.310.8 26.022.6
2019-Mar-21 00:08N 18°14' W 063°30'319.4
2019-Mar-20 23:58N 18°13' W 063°27'1019.7
2019-Mar-20 23:29N 18°07' W 063°19'1019.4
2019-Mar-20 22:59N 18°02' W 063°11'714.7
2019-Mar-20 22:30N 18°01' W 063°03'0 0.4
2019-Mar-20 21:30N 18°01' W 063°03'0 0.0
2019-Mar-20 21:01N 18°01' W 063°03'0 0.0
2019-Mar-20 20:30N 18°01' W 063°03'0 0.0
2019-Mar-20 19:57N 18°01' W 063°03'0 0.0
2019-Mar-20 19:30N 18°01' W 063°03'0 0.0
2019-Mar-20 19:00N 18°01' W 063°03'0 0.0
2019-Mar-20 18:30N 18°01' W 063°03'0 0.0
2019-Mar-20 18:00N 18°01' W 063°03'0 0.0
2019-Mar-20 17:30N 18°01' W 063°03'0 0.0
2019-Mar-20 16:48N 18°01' W 063°03'0 0.0
2019-Mar-20 16:18N 18°01' W 063°03'0 0.0
2019-Mar-20 15:51N 18°01' W 063°03'0 0.0
2019-Mar-20 15:18N 18°01' W 063°03'0 0.0
2019-Mar-20 14:54N 18°01' W 063°03'0 0.0
2019-Mar-20 14:18N 18°01' W 063°03'0 0.0
2019-Mar-20 13:54N 18°01' W 063°03'0 0.0
2019-Mar-20 13:24N 18°01' W 063°03'0 0.0
2019-Mar-20 12:54N 18°01' W 063°03'0 0.0
2019-Mar-20 12:24N 18°01' W 063°03'0 0.0
2019-Mar-20 11:42N 18°01' W 063°03'0 0.0
2019-Mar-20 11:27N 18°01' W 063°03'2 2.9
2019-Mar-20 10:54N 18°00' W 063°04'717.6
2019-Mar-20 10:30N 18°01' W 063°12'1120.5
2019-Mar-20 09:58N 18°02' W 063°23'1220.6
2019-Mar-20 09:24N 18°04' W 063°36'7219.6
2019-Mar-20 05:43N 18°12' W 064°51'7415.7
2019-Mar-20 01:01N 18°27' W 066°07'0 2.4
2019-Mar-20 00:58N 18°28' W 066°07'0 0.5
2019-Mar-20 00:28N 18°28' W 066°07'0 0.0
2019-Mar-19 23:58N 18°28' W 066°07'0 0.0
2019-Mar-19 23:25N 18°28' W 066°07'0 0.0
2019-Mar-19 22:58N 18°28' W 066°07'0 0.0
2019-Mar-19 22:25N 18°28' W 066°07'0 0.0
2019-Mar-19 21:49N 18°28' W 066°07'0 0.0
2019-Mar-19 21:22N 18°28' W 066°07'0 0.0
2019-Mar-19 20:55N 18°28' W 066°07'49611.3
2019-Mar-18 01:00N 20°54' W 074°30'24317.3 110 / 151015.8 26.0
2019-Mar-17 11:00N 22°42' W 078°24'15617.3 090 / 161016.610.8 23.521.4
2019-Mar-17 02:00N 25°06' W 079°30'2428.7 090 / 91019.5
2019-Mar-17 01:10N 25°29' W 079°37'316.9
2019-Mar-17 01:00N 25°32' W 079°37'815.8
2019-Mar-17 00:30N 25°39' W 079°38'714.3
2019-Mar-17 00:00N 25°46' W 079°39'714.7
2019-Mar-16 23:30N 25°53' W 079°42'816.7
2019-Mar-16 23:00N 25°58' W 079°49'816.4
2019-Mar-16 22:30N 26°02' W 079°57'815.4
2019-Mar-16 22:01N 26°06' W 080°05'2 3.7
2019-Mar-16 21:31N 26°05' W 080°07'0 0.1
2019-Mar-16 20:59N 26°05' W 080°07'0 0.0
2019-Mar-16 20:29N 26°05' W 080°07'0 0.0
2019-Mar-16 19:59N 26°05' W 080°07'0 0.0
2019-Mar-16 19:29N 26°05' W 080°07'0 0.0
2019-Mar-16 18:59N 26°05' W 080°07'0 0.0
2019-Mar-16 18:29N 26°05' W 080°07'0 0.0
2019-Mar-16 17:59N 26°05' W 080°07'0 0.0
2019-Mar-16 17:29N 26°05' W 080°07'0 0.0
2019-Mar-16 16:59N 26°05' W 080°07'0 0.0
2019-Mar-16 16:29N 26°05' W 080°07'0 0.0
2019-Mar-16 15:59N 26°05' W 080°07'0 0.0
2019-Mar-16 15:29N 26°05' W 080°07'0 0.0
2019-Mar-16 14:59N 26°05' W 080°07'0 0.0
2019-Mar-16 14:29N 26°05' W 080°07'0 0.0
2019-Mar-16 13:59N 26°05' W 080°07'0 0.0
2019-Mar-16 13:29N 26°05' W 080°07'0 0.0
2019-Mar-16 12:59N 26°05' W 080°07'0 0.0
2019-Mar-16 12:29N 26°05' W 080°07'0 0.0
2019-Mar-16 11:59N 26°05' W 080°07'0 0.0
2019-Mar-16 11:29N 26°05' W 080°07'0 0.0
2019-Mar-16 10:59N 26°05' W 080°07'0 0.0
2019-Mar-16 10:29N 26°05' W 080°07'0 0.0
2019-Mar-16 09:59N 26°05' W 080°07'0 0.0
2019-Mar-16 09:29N 26°05' W 080°07'1 1.4
2019-Mar-16 09:01N 26°06' W 080°07'5 9.1
2019-Mar-16 08:31N 26°06' W 080°02'714.3
2019-Mar-16 08:00N 26°06' W 079°54'714.4
2019-Mar-16 07:30N 25°59' W 079°51'917.1
2019-Mar-16 07:00N 25°51' W 079°52'917.5
2019-Mar-16 06:30N 25°42' W 079°52'1017.8
2019-Mar-16 05:58N 25°32' W 079°53'818.1
2019-Mar-16 05:30N 25°25' W 079°56'1325.6
2019-Mar-16 05:00N 25°12' W 080°00'27415.2 120 / 151019.810.8 24.820.9
2019-Mar-15 11:00N 23°12' W 084°30'2814.2 150 / 121016.510.8 25.121.9
2019-Mar-15 09:00N 22°54' W 084°54'2914.3 120 / 121015.710.8 25.123.0
2019-Mar-15 07:00N 22°36' W 085°18'3718.3 120 / 201015.810.8 25.221.8
2019-Mar-15 05:00N 22°12' W 085°48'3417.2 120 / 221016.810.8 25.323.2
2019-Mar-15 03:00N 21°42' W 086°06'7319.6 120 / 231016.6 5.4
2019-Mar-14 23:16N 20°43' W 086°52'519.0
2019-Mar-14 23:00N 20°39' W 086°55'816.5
2019-Mar-14 22:30N 20°32' W 086°60'3 5.0
2019-Mar-14 21:54N 20°29' W 086°59'0 0.0
2019-Mar-14 21:30N 20°29' W 086°59'0 0.0
2019-Mar-14 21:00N 20°29' W 086°59'0 0.0
2019-Mar-14 20:30N 20°29' W 086°59'0 0.0
2019-Mar-14 20:00N 20°29' W 086°59'0 0.0
2019-Mar-14 19:30N 20°29' W 086°59'0 0.0
2019-Mar-14 19:00N 20°29' W 086°59'0 0.0
2019-Mar-14 18:30N 20°29' W 086°59'0 0.0
2019-Mar-14 18:00N 20°29' W 086°59'0 0.0
2019-Mar-14 17:30N 20°29' W 086°59'0 0.0
2019-Mar-14 16:54N 20°29' W 086°59'0 0.0
2019-Mar-14 16:30N 20°29' W 086°59'0 0.0
2019-Mar-14 16:00N 20°29' W 086°59'0 0.0
2019-Mar-14 15:30N 20°29' W 086°59'0 0.0
2019-Mar-14 15:00N 20°29' W 086°59'0 0.0
2019-Mar-14 14:30N 20°29' W 086°59'0 0.0
2019-Mar-14 14:00N 20°29' W 086°59'0 0.0
2019-Mar-14 13:30N 20°29' W 086°59'0 0.0
2019-Mar-14 13:00N 20°29' W 086°59'0 0.0
2019-Mar-14 12:27N 20°29' W 086°59'0 0.8
2019-Mar-14 12:00N 20°29' W 086°59'4 7.3
2019-Mar-14 11:30N 20°28' W 087°03'611.2
2019-Mar-14 10:57N 20°22' W 087°05'2211.2
2019-Mar-14 09:00N 20°00' W 087°06'   140 / 191013.210.8 24.921.8

Dump ship's entire track history